sensor_id;sensor_type;location;lat;lon;timestamp;temperature;humidity
52609;DHT22;38503;48.544;12.142;2022-09-09T00:00:49;13.50;99.90
52609;DHT22;38503;48.544;12.142;2022-09-09T00:03:26;13.60;99.90
52609;DHT22;38503;48.544;12.142;2022-09-09T00:06:18;13.50;99.90
52609;DHT22;38503;48.544;12.142;2022-09-09T00:11:43;13.50;99.90
52609;DHT22;38503;48.544;12.142;2022-09-09T00:14:45;13.60;99.90
52609;DHT22;38503;48.544;12.142;2022-09-09T00:19:59;13.50;99.90
52609;DHT22;38503;48.544;12.142;2022-09-09T00:22:29;13.40;99.90
52609;DHT22;38503;48.544;12.142;2022-09-09T00:25:11;13.30;99.90
52609;DHT22;38503;48.544;12.142;2022-09-09T00:27:46;13.40;99.90
52609;DHT22;38503;48.544;12.142;2022-09-09T00:32:48;13.20;99.90
52609;DHT22;38503;48.544;12.142;2022-09-09T00:37:48;13.20;99.90
52609;DHT22;38503;48.544;12.142;2022-09-09T00:40:34;13.20;99.90
52609;DHT22;38503;48.544;12.142;2022-09-09T00:57:28;13.10;99.90
52609;DHT22;38503;48.544;12.142;2022-09-09T01:00:21;13.10;99.90
52609;DHT22;38503;48.544;12.142;2022-09-09T01:05:39;13.10;99.90
52609;DHT22;38503;48.544;12.142;2022-09-09T01:11:22;13.10;99.90
52609;DHT22;38503;48.544;12.142;2022-09-09T01:14:56;13.10;99.90
52609;DHT22;38503;48.544;12.142;2022-09-09T01:25:19;13.00;99.90
52609;DHT22;38503;48.544;12.142;2022-09-09T01:27:49;13.00;99.90
52609;DHT22;38503;48.544;12.142;2022-09-09T01:30:18;13.00;99.90
52609;DHT22;38503;48.544;12.142;2022-09-09T01:32:56;13.00;99.90
52609;DHT22;38503;48.544;12.142;2022-09-09T01:35:40;12.90;99.90
52609;DHT22;38503;48.544;12.142;2022-09-09T01:38:09;12.80;99.90
52609;DHT22;38503;48.544;12.142;2022-09-09T01:40:36;12.80;99.90
52609;DHT22;38503;48.544;12.142;2022-09-09T01:43:04;12.70;99.90
52609;DHT22;38503;48.544;12.142;2022-09-09T01:45:31;12.70;99.90
52609;DHT22;38503;48.544;12.142;2022-09-09T01:47:59;12.70;99.90
52609;DHT22;38503;48.544;12.142;2022-09-09T01:50:26;12.60;99.90
52609;DHT22;38503;48.544;12.142;2022-09-09T01:52:56;12.60;99.90
52609;DHT22;38503;48.544;12.142;2022-09-09T01:55:33;12.60;99.90
52609;DHT22;38503;48.544;12.142;2022-09-09T02:00:43;12.70;99.90
52609;DHT22;38503;48.544;12.142;2022-09-09T02:06:18;12.70;99.90
52609;DHT22;38503;48.544;12.142;2022-09-09T02:08:53;12.80;99.90
52609;DHT22;38503;48.544;12.142;2022-09-09T02:11:26;12.80;99.90
52609;DHT22;38503;48.544;12.142;2022-09-09T02:14:05;12.80;99.90
52609;DHT22;38503;48.544;12.142;2022-09-09T02:21:42;13.00;99.90
52609;DHT22;38503;48.544;12.142;2022-09-09T02:24:13;13.00;99.90
52609;DHT22;38503;48.544;12.142;2022-09-09T02:26:44;13.00;99.90
52609;DHT22;38503;48.544;12.142;2022-09-09T02:29:16;13.00;99.90
52609;DHT22;38503;48.544;12.142;2022-09-09T02:31:46;12.90;99.90
52609;DHT22;38503;48.544;12.142;2022-09-09T02:34:15;12.90;99.90
52609;DHT22;38503;48.544;12.142;2022-09-09T02:36:46;12.80;99.90
52609;DHT22;38503;48.544;12.142;2022-09-09T02:39:13;12.80;99.90
52609;DHT22;38503;48.544;12.142;2022-09-09T02:41:41;12.90;99.90
52609;DHT22;38503;48.544;12.142;2022-09-09T02:44:15;12.90;99.90
52609;DHT22;38503;48.544;12.142;2022-09-09T02:49:50;12.90;99.90
52609;DHT22;38503;48.544;12.142;2022-09-09T02:52:33;12.90;99.90
52609;DHT22;38503;48.544;12.142;2022-09-09T02:55:14;12.90;99.90
52609;DHT22;38503;48.544;12.142;2022-09-09T02:57:43;12.90;99.90
52609;DHT22;38503;48.544;12.142;2022-09-09T03:00:13;12.90;99.90
52609;DHT22;38503;48.544;12.142;2022-09-09T03:02:41;12.80;99.90
52609;DHT22;38503;48.544;12.142;2022-09-09T03:05:08;12.80;99.90
52609;DHT22;38503;48.544;12.142;2022-09-09T03:07:35;12.80;99.90
52609;DHT22;38503;48.544;12.142;2022-09-09T03:10:02;12.80;99.90
52609;DHT22;38503;48.544;12.142;2022-09-09T03:12:30;12.80;99.90
52609;DHT22;38503;48.544;12.142;2022-09-09T03:14:57;12.70;99.90
52609;DHT22;38503;48.544;12.142;2022-09-09T03:17:24;12.70;99.90
52609;DHT22;38503;48.544;12.142;2022-09-09T03:19:51;12.80;99.90
52609;DHT22;38503;48.544;12.142;2022-09-09T03:22:24;12.70;99.90
52609;DHT22;38503;48.544;12.142;2022-09-09T03:24:51;12.70;99.90
52609;DHT22;38503;48.544;12.142;2022-09-09T03:27:18;12.70;99.90
52609;DHT22;38503;48.544;12.142;2022-09-09T03:29:46;12.70;99.90
52609;DHT22;38503;48.544;12.142;2022-09-09T03:32:13;12.70;99.90
52609;DHT22;38503;48.544;12.142;2022-09-09T03:34:42;12.70;99.90
52609;DHT22;38503;48.544;12.142;2022-09-09T03:37:09;12.70;99.90
52609;DHT22;38503;48.544;12.142;2022-09-09T03:39:36;12.70;99.90
52609;DHT22;38503;48.544;12.142;2022-09-09T03:42:03;12.60;99.90
52609;DHT22;38503;48.544;12.142;2022-09-09T03:44:30;12.60;99.90
52609;DHT22;38503;48.544;12.142;2022-09-09T03:46:57;12.50;99.90
52609;DHT22;38503;48.544;12.142;2022-09-09T03:49:27;12.80;99.90
52609;DHT22;38503;48.544;12.142;2022-09-09T03:51:57;13.00;99.90
52609;DHT22;38503;48.544;12.142;2022-09-09T03:54:25;12.90;99.90
52609;DHT22;38503;48.544;12.142;2022-09-09T03:56:52;12.80;99.90
52609;DHT22;38503;48.544;12.142;2022-09-09T03:59:19;12.80;99.90
52609;DHT22;38503;48.544;12.142;2022-09-09T04:01:47;12.70;99.90
52609;DHT22;38503;48.544;12.142;2022-09-09T04:04:14;12.80;99.90
52609;DHT22;38503;48.544;12.142;2022-09-09T04:06:41;12.50;99.90
52609;DHT22;38503;48.544;12.142;2022-09-09T04:09:08;12.50;99.90
52609;DHT22;38503;48.544;12.142;2022-09-09T04:11:35;12.40;99.90
52609;DHT22;38503;48.544;12.142;2022-09-09T04:14:01;12.30;99.90
52609;DHT22;38503;48.544;12.142;2022-09-09T04:16:28;12.30;99.90
52609;DHT22;38503;48.544;12.142;2022-09-09T04:18:55;12.30;99.90
52609;DHT22;38503;48.544;12.142;2022-09-09T04:21:22;12.30;99.90
52609;DHT22;38503;48.544;12.142;2022-09-09T04:23:49;12.30;99.90
52609;DHT22;38503;48.544;12.142;2022-09-09T04:26:16;12.20;99.90
52609;DHT22;38503;48.544;12.142;2022-09-09T04:28:43;12.20;99.90
52609;DHT22;38503;48.544;12.142;2022-09-09T04:31:17;12.20;99.90
52609;DHT22;38503;48.544;12.142;2022-09-09T04:33:45;12.20;99.90
52609;DHT22;38503;48.544;12.142;2022-09-09T04:36:13;12.20;99.90
52609;DHT22;38503;48.544;12.142;2022-09-09T04:38:40;12.30;99.90
52609;DHT22;38503;48.544;12.142;2022-09-09T04:41:07;12.20;99.90
52609;DHT22;38503;48.544;12.142;2022-09-09T04:43:38;12.20;99.90
52609;DHT22;38503;48.544;12.142;2022-09-09T04:46:05;12.20;99.90
52609;DHT22;38503;48.544;12.142;2022-09-09T04:48:33;12.20;99.90
52609;DHT22;38503;48.544;12.142;2022-09-09T04:51:04;12.20;99.90
52609;DHT22;38503;48.544;12.142;2022-09-09T04:53:32;12.20;99.90
52609;DHT22;38503;48.544;12.142;2022-09-09T04:56:12;12.10;99.90
52609;DHT22;38503;48.544;12.142;2022-09-09T04:58:40;12.00;99.90
52609;DHT22;38503;48.544;12.142;2022-09-09T05:01:12;12.00;99.90
52609;DHT22;38503;48.544;12.142;2022-09-09T05:03:40;12.00;99.90
52609;DHT22;38503;48.544;12.142;2022-09-09T05:06:09;12.00;99.90
52609;DHT22;38503;48.544;12.142;2022-09-09T05:08:38;11.90;99.90
52609;DHT22;38503;48.544;12.142;2022-09-09T05:11:17;11.90;99.90
52609;DHT22;38503;48.544;12.142;2022-09-09T05:13:46;11.90;99.90
52609;DHT22;38503;48.544;12.142;2022-09-09T05:16:14;11.90;99.90
52609;DHT22;38503;48.544;12.142;2022-09-09T05:18:41;11.90;99.90
52609;DHT22;38503;48.544;12.142;2022-09-09T05:21:14;11.90;99.90
52609;DHT22;38503;48.544;12.142;2022-09-09T05:23:41;12.00;99.90
52609;DHT22;38503;48.544;12.142;2022-09-09T05:26:19;12.00;99.90
52609;DHT22;38503;48.544;12.142;2022-09-09T05:28:47;12.20;99.90
52609;DHT22;38503;48.544;12.142;2022-09-09T05:31:16;12.30;99.90
52609;DHT22;38503;48.544;12.142;2022-09-09T05:33:44;12.30;99.90
52609;DHT22;38503;48.544;12.142;2022-09-09T05:36:18;12.30;99.90
52609;DHT22;38503;48.544;12.142;2022-09-09T05:38:48;12.30;99.90
52609;DHT22;38503;48.544;12.142;2022-09-09T05:41:16;12.20;99.90
52609;DHT22;38503;48.544;12.142;2022-09-09T05:43:44;12.20;99.90
52609;DHT22;38503;48.544;12.142;2022-09-09T05:46:19;12.20;99.90
52609;DHT22;38503;48.544;12.142;2022-09-09T05:48:48;12.10;99.90
52609;DHT22;38503;48.544;12.142;2022-09-09T05:51:22;12.10;99.90
52609;DHT22;38503;48.544;12.142;2022-09-09T05:53:51;12.20;99.90
52609;DHT22;38503;48.544;12.142;2022-09-09T05:56:23;12.20;99.90
52609;DHT22;38503;48.544;12.142;2022-09-09T05:58:52;12.30;99.90
52609;DHT22;38503;48.544;12.142;2022-09-09T06:01:30;12.30;99.90
52609;DHT22;38503;48.544;12.142;2022-09-09T06:03:58;12.40;99.90
52609;DHT22;38503;48.544;12.142;2022-09-09T06:06:33;12.80;99.90
52609;DHT22;38503;48.544;12.142;2022-09-09T06:09:05;13.00;99.90
52609;DHT22;38503;48.544;12.142;2022-09-09T06:11:33;13.30;99.90
52609;DHT22;38503;48.544;12.142;2022-09-09T06:14:03;13.50;99.90
52609;DHT22;38503;48.544;12.142;2022-09-09T06:16:30;15.00;99.90
52609;DHT22;38503;48.544;12.142;2022-09-09T06:18:59;14.90;91.50
52609;DHT22;38503;48.544;12.142;2022-09-09T06:21:28;14.60;98.70
52609;DHT22;38503;48.544;12.142;2022-09-09T06:23:57;14.40;99.90
52609;DHT22;38503;48.544;12.142;2022-09-09T06:26:31;14.20;99.90
52609;DHT22;38503;48.544;12.142;2022-09-09T06:29:00;13.80;99.90
52609;DHT22;38503;48.544;12.142;2022-09-09T06:31:28;13.50;99.90
52609;DHT22;38503;48.544;12.142;2022-09-09T06:33:58;13.40;99.90
52609;DHT22;38503;48.544;12.142;2022-09-09T06:36:27;13.30;99.90
52609;DHT22;38503;48.544;12.142;2022-09-09T06:38:54;13.00;99.90
52609;DHT22;38503;48.544;12.142;2022-09-09T06:41:22;12.90;99.90
52609;DHT22;38503;48.544;12.142;2022-09-09T06:43:49;12.80;99.90
52609;DHT22;38503;48.544;12.142;2022-09-09T06:46:27;12.80;99.90
52609;DHT22;38503;48.544;12.142;2022-09-09T06:48:55;12.90;99.90
52609;DHT22;38503;48.544;12.142;2022-09-09T06:51:26;13.00;99.90
52609;DHT22;38503;48.544;12.142;2022-09-09T06:53:54;13.00;99.90
52609;DHT22;38503;48.544;12.142;2022-09-09T06:56:36;13.00;99.90
52609;DHT22;38503;48.544;12.142;2022-09-09T06:59:04;13.00;99.90
52609;DHT22;38503;48.544;12.142;2022-09-09T07:01:40;12.90;99.90
52609;DHT22;38503;48.544;12.142;2022-09-09T07:04:07;13.00;99.90
52609;DHT22;38503;48.544;12.142;2022-09-09T07:06:37;13.10;99.90
52609;DHT22;38503;48.544;12.142;2022-09-09T07:09:07;13.20;99.90
52609;DHT22;38503;48.544;12.142;2022-09-09T07:11:42;13.10;99.90
52609;DHT22;38503;48.544;12.142;2022-09-09T07:14:10;13.20;99.90
52609;DHT22;38503;48.544;12.142;2022-09-09T07:16:41;13.20;99.90
52609;DHT22;38503;48.544;12.142;2022-09-09T07:19:08;13.20;99.90
52609;DHT22;38503;48.544;12.142;2022-09-09T07:21:35;13.20;99.90
52609;DHT22;38503;48.544;12.142;2022-09-09T07:24:02;13.30;99.90
52609;DHT22;38503;48.544;12.142;2022-09-09T07:26:34;13.50;99.90
52609;DHT22;38503;48.544;12.142;2022-09-09T07:29:02;13.60;99.90
52609;DHT22;38503;48.544;12.142;2022-09-09T07:31:31;13.60;99.90
52609;DHT22;38503;48.544;12.142;2022-09-09T07:34:01;13.70;99.90
52609;DHT22;38503;48.544;12.142;2022-09-09T07:36:31;13.80;99.90
52609;DHT22;38503;48.544;12.142;2022-09-09T07:39:25;13.90;99.90
52609;DHT22;38503;48.544;12.142;2022-09-09T07:41:52;13.90;99.90
52609;DHT22;38503;48.544;12.142;2022-09-09T07:44:23;13.80;99.90
52609;DHT22;38503;48.544;12.142;2022-09-09T07:46:49;13.60;99.90
52609;DHT22;38503;48.544;12.142;2022-09-09T07:49:17;13.70;99.90
52609;DHT22;38503;48.544;12.142;2022-09-09T07:51:51;13.70;99.90
52609;DHT22;38503;48.544;12.142;2022-09-09T07:54:20;13.90;99.90
52609;DHT22;38503;48.544;12.142;2022-09-09T07:56:47;13.90;99.90
52609;DHT22;38503;48.544;12.142;2022-09-09T07:59:14;14.00;99.90
52609;DHT22;38503;48.544;12.142;2022-09-09T08:01:43;14.10;99.90
52609;DHT22;38503;48.544;12.142;2022-09-09T08:04:13;14.20;99.90
52609;DHT22;38503;48.544;12.142;2022-09-09T08:06:51;14.20;99.90
52609;DHT22;38503;48.544;12.142;2022-09-09T08:09:19;14.40;99.90
52609;DHT22;38503;48.544;12.142;2022-09-09T08:11:47;14.50;99.90
52609;DHT22;38503;48.544;12.142;2022-09-09T08:14:14;14.50;99.90
52609;DHT22;38503;48.544;12.142;2022-09-09T08:16:46;14.40;99.90
52609;DHT22;38503;48.544;12.142;2022-09-09T08:19:14;14.30;99.90
52609;DHT22;38503;48.544;12.142;2022-09-09T08:21:44;14.20;99.90
52609;DHT22;38503;48.544;12.142;2022-09-09T08:24:12;14.30;99.90
52609;DHT22;38503;48.544;12.142;2022-09-09T08:26:41;14.30;99.90
52609;DHT22;38503;48.544;12.142;2022-09-09T08:29:12;14.30;99.90
52609;DHT22;38503;48.544;12.142;2022-09-09T08:31:41;14.40;99.90
52609;DHT22;38503;48.544;12.142;2022-09-09T08:34:09;14.40;99.90
52609;DHT22;38503;48.544;12.142;2022-09-09T08:36:54;14.40;99.90
52609;DHT22;38503;48.544;12.142;2022-09-09T08:39:22;14.50;99.90
52609;DHT22;38503;48.544;12.142;2022-09-09T08:42:28;14.50;99.90
52609;DHT22;38503;48.544;12.142;2022-09-09T08:50:27;14.80;99.90
52609;DHT22;38503;48.544;12.142;2022-09-09T08:55:56;15.20;99.90
52609;DHT22;38503;48.544;12.142;2022-09-09T08:58:30;15.40;99.90
52609;DHT22;38503;48.544;12.142;2022-09-09T09:04:10;15.70;99.90
52609;DHT22;38503;48.544;12.142;2022-09-09T09:12:18;16.60;99.90
52609;DHT22;38503;48.544;12.142;2022-09-09T09:14:47;16.90;99.90
52609;DHT22;38503;48.544;12.142;2022-09-09T09:17:20;16.80;99.70
52609;DHT22;38503;48.544;12.142;2022-09-09T09:19:50;16.50;99.90
52609;DHT22;38503;48.544;12.142;2022-09-09T09:22:22;16.40;99.90
52609;DHT22;38503;48.544;12.142;2022-09-09T09:28:15;16.20;99.90
52609;DHT22;38503;48.544;12.142;2022-09-09T09:30:25;16.20;99.90
52609;DHT22;38503;48.544;12.142;2022-09-09T09:33:05;16.20;99.90
52609;DHT22;38503;48.544;12.142;2022-09-09T09:35:35;16.20;99.90
52609;DHT22;38503;48.544;12.142;2022-09-09T09:38:21;16.10;99.90
52609;DHT22;38503;48.544;12.142;2022-09-09T09:41:08;16.10;99.90
52609;DHT22;38503;48.544;12.142;2022-09-09T09:43:37;16.10;99.90
52609;DHT22;38503;48.544;12.142;2022-09-09T09:46:21;16.10;99.90
52609;DHT22;38503;48.544;12.142;2022-09-09T09:49:04;16.30;99.90
52609;DHT22;38503;48.544;12.142;2022-09-09T09:51:35;16.50;99.90
52609;DHT22;38503;48.544;12.142;2022-09-09T09:54:23;16.50;99.90
52609;DHT22;38503;48.544;12.142;2022-09-09T09:56:54;16.50;99.90
52609;DHT22;38503;48.544;12.142;2022-09-09T09:59:23;16.50;99.90
52609;DHT22;38503;48.544;12.142;2022-09-09T10:04:38;16.50;99.90
52609;DHT22;38503;48.544;12.142;2022-09-09T10:07:17;16.50;99.90
52609;DHT22;38503;48.544;12.142;2022-09-09T10:09:45;16.40;99.90
52609;DHT22;38503;48.544;12.142;2022-09-09T10:15:04;15.70;99.90
52609;DHT22;38503;48.544;12.142;2022-09-09T10:32:06;15.90;99.90
52609;DHT22;38503;48.544;12.142;2022-09-09T10:34:26;15.90;99.90
52609;DHT22;38503;48.544;12.142;2022-09-09T10:36:58;16.00;99.90
52609;DHT22;38503;48.544;12.142;2022-09-09T10:39:36;16.00;99.90
52609;DHT22;38503;48.544;12.142;2022-09-09T10:42:16;16.20;99.90
52609;DHT22;38503;48.544;12.142;2022-09-09T10:47:29;16.50;99.90
52609;DHT22;38503;48.544;12.142;2022-09-09T10:53:23;16.80;99.90
52609;DHT22;38503;48.544;12.142;2022-09-09T10:55:55;16.80;99.90
52609;DHT22;38503;48.544;12.142;2022-09-09T10:58:29;16.80;99.90
52609;DHT22;38503;48.544;12.142;2022-09-09T11:01:02;16.70;99.90
52609;DHT22;38503;48.544;12.142;2022-09-09T11:03:36;16.60;99.90
52609;DHT22;38503;48.544;12.142;2022-09-09T11:06:18;16.50;99.90
52609;DHT22;38503;48.544;12.142;2022-09-09T11:08:46;16.40;99.90
52609;DHT22;38503;48.544;12.142;2022-09-09T11:11:41;16.30;99.90
52609;DHT22;38503;48.544;12.142;2022-09-09T11:17:16;16.50;99.90
52609;DHT22;38503;48.544;12.142;2022-09-09T11:19:44;16.80;99.90
52609;DHT22;38503;48.544;12.142;2022-09-09T11:24:53;17.20;99.90
52609;DHT22;38503;48.544;12.142;2022-09-09T11:27:44;17.50;99.90
52609;DHT22;38503;48.544;12.142;2022-09-09T11:30:19;18.10;99.90
52609;DHT22;38503;48.544;12.142;2022-09-09T11:38:50;19.80;51.60
52609;DHT22;38503;48.544;12.142;2022-09-09T11:41:20;19.80;49.70
52609;DHT22;38503;48.544;12.142;2022-09-09T11:43:52;19.40;37.00
52609;DHT22;38503;48.544;12.142;2022-09-09T11:46:22;19.70;37.50
52609;DHT22;38503;48.544;12.142;2022-09-09T11:49:02;20.00;61.90
52609;DHT22;38503;48.544;12.142;2022-09-09T11:51:31;19.70;31.90
52609;DHT22;38503;48.544;12.142;2022-09-09T11:54:00;19.40;51.00
52609;DHT22;38503;48.544;12.142;2022-09-09T11:56:42;19.20;47.70
52609;DHT22;38503;48.544;12.142;2022-09-09T11:59:30;19.60;90.60
52609;DHT22;38503;48.544;12.142;2022-09-09T12:01:58;20.00;28.80
52609;DHT22;38503;48.544;12.142;2022-09-09T12:12:25;20.60;1.00
52609;DHT22;38503;48.544;12.142;2022-09-09T12:18:06;20.90;1.00
52609;DHT22;38503;48.544;12.142;2022-09-09T12:20:36;21.60;1.00
52609;DHT22;38503;48.544;12.142;2022-09-09T12:23:27;22.40;1.00
52609;DHT22;38503;48.544;12.142;2022-09-09T12:26:09;22.70;1.00
52609;DHT22;38503;48.544;12.142;2022-09-09T12:34:58;24.60;1.00
52609;DHT22;38503;48.544;12.142;2022-09-09T12:37:31;24.30;99.90
52609;DHT22;38503;48.544;12.142;2022-09-09T12:40:01;23.30;1.00
52609;DHT22;38503;48.544;12.142;2022-09-09T12:42:30;22.80;1.00
52609;DHT22;38503;48.544;12.142;2022-09-09T12:45:22;23.00;1.00
52609;DHT22;38503;48.544;12.142;2022-09-09T12:47:58;22.70;1.00
52609;DHT22;38503;48.544;12.142;2022-09-09T12:50:28;22.70;1.00
52609;DHT22;38503;48.544;12.142;2022-09-09T12:53:10;22.00;1.00
52609;DHT22;38503;48.544;12.142;2022-09-09T12:55:38;21.80;1.00
52609;DHT22;38503;48.544;12.142;2022-09-09T12:58:06;22.40;1.00
52609;DHT22;38503;48.544;12.142;2022-09-09T13:00:34;22.70;1.00
52609;DHT22;38503;48.544;12.142;2022-09-09T13:03:13;22.30;1.00
52609;DHT22;38503;48.544;12.142;2022-09-09T13:05:41;22.30;1.00
52609;DHT22;38503;48.544;12.142;2022-09-09T13:08:11;22.60;1.00
52609;DHT22;38503;48.544;12.142;2022-09-09T13:10:50;22.70;1.00
52609;DHT22;38503;48.544;12.142;2022-09-09T13:13:39;22.90;1.00
52609;DHT22;38503;48.544;12.142;2022-09-09T13:16:19;22.90;1.00
52609;DHT22;38503;48.544;12.142;2022-09-09T13:18:47;22.70;99.90
52609;DHT22;38503;48.544;12.142;2022-09-09T13:21:14;22.00;1.00
52609;DHT22;38503;48.544;12.142;2022-09-09T13:23:41;22.00;1.00
52609;DHT22;38503;48.544;12.142;2022-09-09T13:26:24;21.60;1.00
52609;DHT22;38503;48.544;12.142;2022-09-09T13:28:53;21.30;1.00
52609;DHT22;38503;48.544;12.142;2022-09-09T13:31:29;21.40;1.00
52609;DHT22;38503;48.544;12.142;2022-09-09T13:33:56;21.30;1.00
52609;DHT22;38503;48.544;12.142;2022-09-09T13:36:33;21.50;1.00
52609;DHT22;38503;48.544;12.142;2022-09-09T13:39:03;21.50;1.00
52609;DHT22;38503;48.544;12.142;2022-09-09T13:44:05;21.20;1.00
52609;DHT22;38503;48.544;12.142;2022-09-09T13:46:41;21.00;1.00
52609;DHT22;38503;48.544;12.142;2022-09-09T13:51:49;20.90;1.00
52609;DHT22;38503;48.544;12.142;2022-09-09T13:54:19;21.00;1.00
52609;DHT22;38503;48.544;12.142;2022-09-09T13:56:46;21.30;1.00
52609;DHT22;38503;48.544;12.142;2022-09-09T13:59:15;21.10;1.00
52609;DHT22;38503;48.544;12.142;2022-09-09T14:01:42;20.60;1.00
52609;DHT22;38503;48.544;12.142;2022-09-09T14:04:09;20.20;3.50
52609;DHT22;38503;48.544;12.142;2022-09-09T14:06:38;20.20;14.20
52609;DHT22;38503;48.544;12.142;2022-09-09T14:09:09;20.30;11.20
52609;DHT22;38503;48.544;12.142;2022-09-09T14:11:38;20.20;18.40
52609;DHT22;38503;48.544;12.142;2022-09-09T14:14:07;20.10;21.10
52609;DHT22;38503;48.544;12.142;2022-09-09T14:16:34;19.90;20.60
52609;DHT22;38503;48.544;12.142;2022-09-09T14:19:01;19.90;23.50
52609;DHT22;38503;48.544;12.142;2022-09-09T14:21:28;20.00;25.50
52609;DHT22;38503;48.544;12.142;2022-09-09T14:23:55;20.50;17.80
52609;DHT22;38503;48.544;12.142;2022-09-09T14:26:25;20.30;12.50
52609;DHT22;38503;48.544;12.142;2022-09-09T14:28:52;19.90;19.30
52609;DHT22;38503;48.544;12.142;2022-09-09T14:31:22;19.60;17.00
52609;DHT22;38503;48.544;12.142;2022-09-09T14:33:49;19.60;22.50
52609;DHT22;38503;48.544;12.142;2022-09-09T14:36:17;19.70;24.50
52609;DHT22;38503;48.544;12.142;2022-09-09T14:38:44;20.00;17.40
52609;DHT22;38503;48.544;12.142;2022-09-09T14:41:13;20.20;10.50
52609;DHT22;38503;48.544;12.142;2022-09-09T14:43:41;20.20;1.00
52609;DHT22;38503;48.544;12.142;2022-09-09T14:46:10;20.00;4.50
52609;DHT22;38503;48.544;12.142;2022-09-09T14:48:37;19.90;3.20
52609;DHT22;38503;48.544;12.142;2022-09-09T14:51:09;19.70;5.30
52609;DHT22;38503;48.544;12.142;2022-09-09T14:53:36;19.30;5.90
52609;DHT22;38503;48.544;12.142;2022-09-09T14:56:12;19.10;10.80
52609;DHT22;38503;48.544;12.142;2022-09-09T14:58:39;19.00;16.50
52609;DHT22;38503;48.544;12.142;2022-09-09T15:01:11;18.90;18.20
52609;DHT22;38503;48.544;12.142;2022-09-09T15:03:39;18.90;18.70
52609;DHT22;38503;48.544;12.142;2022-09-09T15:06:11;18.90;21.60
52609;DHT22;38503;48.544;12.142;2022-09-09T15:08:41;18.90;21.70
52609;DHT22;38503;48.544;12.142;2022-09-09T15:11:09;19.00;22.80
52609;DHT22;38503;48.544;12.142;2022-09-09T15:13:38;19.00;23.90
52609;DHT22;38503;48.544;12.142;2022-09-09T15:16:14;19.00;23.00
52609;DHT22;38503;48.544;12.142;2022-09-09T15:18:42;19.00;23.70
52609;DHT22;38503;48.544;12.142;2022-09-09T15:21:16;18.90;23.10
52609;DHT22;38503;48.544;12.142;2022-09-09T15:23:43;19.00;13.50
52609;DHT22;38503;48.544;12.142;2022-09-09T15:26:10;19.00;10.20
52609;DHT22;38503;48.544;12.142;2022-09-09T15:28:38;18.90;5.00
52609;DHT22;38503;48.544;12.142;2022-09-09T15:31:07;19.00;4.90
52609;DHT22;38503;48.544;12.142;2022-09-09T15:33:36;19.00;2.30
52609;DHT22;38503;48.544;12.142;2022-09-09T15:38:40;18.90;1.00
52609;DHT22;38503;48.544;12.142;2022-09-09T15:41:07;18.90;1.20
52609;DHT22;38503;48.544;12.142;2022-09-09T15:43:34;18.90;17.60
52609;DHT22;38503;48.544;12.142;2022-09-09T15:48:44;18.30;34.70
52609;DHT22;38503;48.544;12.142;2022-09-09T15:51:14;18.10;38.30
52609;DHT22;38503;48.544;12.142;2022-09-09T15:54:01;18.20;32.20
52609;DHT22;38503;48.544;12.142;2022-09-09T15:56:29;18.30;22.10
52609;DHT22;38503;48.544;12.142;2022-09-09T15:59:02;18.30;18.70
52609;DHT22;38503;48.544;12.142;2022-09-09T16:01:31;18.40;19.40
52609;DHT22;38503;48.544;12.142;2022-09-09T16:03:58;18.50;20.60
52609;DHT22;38503;48.544;12.142;2022-09-09T16:06:28;18.40;20.20
52609;DHT22;38503;48.544;12.142;2022-09-09T16:08:59;18.30;25.80
52609;DHT22;38503;48.544;12.142;2022-09-09T16:11:31;18.30;24.70
52609;DHT22;38503;48.544;12.142;2022-09-09T16:13:59;18.30;26.00
52609;DHT22;38503;48.544;12.142;2022-09-09T16:16:28;18.30;28.70
52609;DHT22;38503;48.544;12.142;2022-09-09T16:18:58;18.30;27.30
52609;DHT22;38503;48.544;12.142;2022-09-09T16:21:34;18.40;28.40
52609;DHT22;38503;48.544;12.142;2022-09-09T16:24:04;18.40;27.10
52609;DHT22;38503;48.544;12.142;2022-09-09T16:26:33;18.20;30.50
52609;DHT22;38503;48.544;12.142;2022-09-09T16:29:01;18.10;39.10
52609;DHT22;38503;48.544;12.142;2022-09-09T16:31:30;18.00;44.80
52609;DHT22;38503;48.544;12.142;2022-09-09T16:33:59;18.10;44.80
52609;DHT22;38503;48.544;12.142;2022-09-09T16:36:28;18.30;40.50
52609;DHT22;38503;48.544;12.142;2022-09-09T16:39:11;18.60;28.60
52609;DHT22;38503;48.544;12.142;2022-09-09T16:41:40;18.80;25.60
52609;DHT22;38503;48.544;12.142;2022-09-09T16:44:09;19.10;15.40
52609;DHT22;38503;48.544;12.142;2022-09-09T16:46:41;18.80;16.20
52609;DHT22;38503;48.544;12.142;2022-09-09T16:49:11;18.80;20.20
52609;DHT22;38503;48.544;12.142;2022-09-09T16:51:59;18.70;19.30
52609;DHT22;38503;48.544;12.142;2022-09-09T16:54:26;18.50;24.10
52609;DHT22;38503;48.544;12.142;2022-09-09T16:56:53;18.50;27.80
52609;DHT22;38503;48.544;12.142;2022-09-09T16:59:21;18.50;30.70
52609;DHT22;38503;48.544;12.142;2022-09-09T17:01:51;18.40;36.30
52609;DHT22;38503;48.544;12.142;2022-09-09T17:04:24;18.30;40.00
52609;DHT22;38503;48.544;12.142;2022-09-09T17:06:53;18.40;44.10
52609;DHT22;38503;48.544;12.142;2022-09-09T17:09:21;18.30;45.30
52609;DHT22;38503;48.544;12.142;2022-09-09T17:11:49;18.30;48.70
52609;DHT22;38503;48.544;12.142;2022-09-09T17:14:20;18.20;53.50
52609;DHT22;38503;48.544;12.142;2022-09-09T17:16:48;18.10;53.20
52609;DHT22;38503;48.544;12.142;2022-09-09T17:19:14;18.00;53.40
52609;DHT22;38503;48.544;12.142;2022-09-09T17:21:41;18.00;56.90
52609;DHT22;38503;48.544;12.142;2022-09-09T17:24:29;17.90;51.80
52609;DHT22;38503;48.544;12.142;2022-09-09T17:26:56;17.80;56.50
52609;DHT22;38503;48.544;12.142;2022-09-09T17:29:24;17.70;57.20
52609;DHT22;38503;48.544;12.142;2022-09-09T17:31:51;17.70;59.60
52609;DHT22;38503;48.544;12.142;2022-09-09T17:34:18;17.60;64.00
52609;DHT22;38503;48.544;12.142;2022-09-09T17:36:45;17.50;69.80
52609;DHT22;38503;48.544;12.142;2022-09-09T17:39:12;17.50;69.90
52609;DHT22;38503;48.544;12.142;2022-09-09T17:41:40;17.40;64.90
52609;DHT22;38503;48.544;12.142;2022-09-09T17:44:07;17.40;63.70
52609;DHT22;38503;48.544;12.142;2022-09-09T17:46:41;17.40;64.50
52609;DHT22;38503;48.544;12.142;2022-09-09T17:49:13;17.40;60.90
52609;DHT22;38503;48.544;12.142;2022-09-09T17:51:41;17.30;64.80
52609;DHT22;38503;48.544;12.142;2022-09-09T17:54:15;17.20;68.30
52609;DHT22;38503;48.544;12.142;2022-09-09T17:56:43;17.10;72.40
52609;DHT22;38503;48.544;12.142;2022-09-09T17:59:12;17.10;77.90
52609;DHT22;38503;48.544;12.142;2022-09-09T18:01:42;17.00;78.80